Time;durP1;ratioP1;P1;durP2;ratioP2;P2;SDS_P1;SDS_P2;PMS_P1;PMS_P2;Temp;Humidity;BMP_temperature;BMP_pressure;BME280_temperature;BME280_humidity;BME280_pressure;Samples;Min_cycle;Max_cycle;Signal;HPM_P1;HPM_P2
2021/12/06 00:01:39;;;;;;;14.40;3.50;;;;;;;4.53;100.00;100562.28;5065856;28;20062;-74
2021/12/06 00:04:06;;;;;;;14.30;3.85;;;;;;;4.53;100.00;100567.78;5096133;28;20104;-74
2021/12/06 00:06:37;;;;;;;9.55;3.00;;;;;;;4.53;100.00;100558.72;5065010;28;20542;-74
2021/12/06 00:09:04;;;;;;;10.35;2.78;;;;;;;4.53;100.00;100554.03;5044238;28;20434;-74
2021/12/06 00:11:30;;;;;;;7.50;2.70;;;;;;;4.53;100.00;100554.03;5092892;28;20111;-74
2021/12/06 00:13:55;;;;;;;13.88;3.92;;;;;;;4.54;100.00;100552.13;5068955;28;20036;-74
2021/12/06 00:16:23;;;;;;;12.32;3.78;;;;;;;4.53;100.00;100562.28;5069461;28;20036;-74
2021/12/06 00:18:49;;;;;;;11.95;3.22;;;;;;;4.56;100.00;100552.72;5094741;28;20039;-74
2021/12/06 00:21:15;;;;;;;11.10;3.45;;;;;;;4.54;100.00;100558.47;5079451;28;20173;-74
2021/12/06 00:23:40;;;;;;;11.45;3.30;;;;;;;4.55;100.00;100549.13;5044433;28;20031;-74
2021/12/06 00:26:06;;;;;;;10.20;3.47;;;;;;;4.53;100.00;100550.47;5070430;28;20032;-74
2021/12/06 00:28:32;;;;;;;10.40;3.15;;;;;;;4.54;100.00;100546.63;5052573;28;20076;-74
2021/12/06 00:30:57;;;;;;;11.10;2.95;;;;;;;4.54;100.00;100547.47;5063521;28;20053;-74
2021/12/06 00:33:24;;;;;;;11.90;3.42;;;;;;;4.57;100.00;100549.72;5069982;28;20023;-74
2021/12/06 00:35:49;;;;;;;6.97;3.20;;;;;;;4.51;100.00;100547.94;5084320;28;20410;-74
2021/12/06 00:38:15;;;;;;;12.82;3.33;;;;;;;4.53;100.00;100548.53;5100116;28;20032;-73
2021/12/06 00:40:45;;;;;;;9.07;2.90;;;;;;;4.54;100.00;100546.63;5078019;28;20038;-74
2021/12/06 00:43:11;;;;;;;9.15;3.40;;;;;;;4.51;100.00;100553.44;5066903;28;20032;-74
2021/12/06 00:45:36;;;;;;;7.68;2.90;;;;;;;4.52;100.00;100559.81;5049756;28;20498;-74
2021/12/06 00:48:02;;;;;;;7.97;2.70;;;;;;;4.50;100.00;100551.81;5094421;28;20031;-74
2021/12/06 00:50:30;;;;;;;6.40;3.05;;;;;;;4.52;100.00;100566.13;5034452;28;20031;-74
2021/12/06 00:52:55;;;;;;;5.72;2.70;;;;;;;4.50;100.00;100575.72;5061934;28;20031;-74
2021/12/06 00:55:21;;;;;;;11.48;3.05;;;;;;;4.51;100.00;100580.97;5065534;28;20031;-74
2021/12/06 00:57:48;;;;;;;7.35;2.95;;;;;;;4.49;100.00;100583.16;5066035;28;20067;-74
2021/12/06 01:00:38;;;;;;;7.50;2.50;;;;;;;4.51;100.00;100580.13;5067967;28;20507;-74
2021/12/06 01:03:05;;;;;;;6.97;2.55;;;;;;;4.52;100.00;100582.66;5109149;28;20370;-74
2021/12/06 01:05:31;;;;;;;6.40;2.70;;;;;;;4.51;100.00;100585.63;5065400;28;20028;-74
2021/12/06 01:07:56;;;;;;;7.90;2.60;;;;;;;4.48;100.00;100590.56;5094673;28;20036;-74
2021/12/06 01:10:23;;;;;;;6.60;2.50;;;;;;;4.48;100.00;100592.47;5101023;28;20053;-74
2021/12/06 01:12:49;;;;;;;8.45;2.47;;;;;;;4.48;100.00;100587.81;5036952;28;20041;-74
2021/12/06 01:15:14;;;;;;;11.32;2.70;;;;;;;4.50;100.00;100594.97;5087052;28;20426;-74
2021/12/06 01:17:40;;;;;;;9.85;2.80;;;;;;;4.50;100.00;100587.56;5086590;28;20032;-74
2021/12/06 01:20:09;;;;;;;7.10;2.65;;;;;;;4.48;100.00;100581.47;5095861;28;20088;-74
2021/12/06 01:25:28;;;;;;;9.50;2.60;;;;;;;4.47;100.00;100591.63;5051693;28;20050;-74
2021/12/06 01:41:27;;;;;;;7.45;2.20;;;;;;;4.50;100.00;100601.31;5100557;28;20366;-74
2021/12/06 01:44:06;;;;;;;9.98;2.35;;;;;;;4.49;100.00;100594.16;5070922;28;20118;-74
2021/12/06 01:46:32;;;;;;;5.35;2.17;;;;;;;4.49;100.00;100594.16;5077778;28;20028;-74
2021/12/06 01:48:58;;;;;;;6.35;1.85;;;;;;;4.50;100.00;100586.72;5068078;28;20033;-74
2021/12/06 01:51:24;;;;;;;9.10;2.08;;;;;;;4.52;100.00;100581.81;5081453;28;20057;-74
2021/12/06 01:53:49;;;;;;;7.30;2.80;;;;;;;4.50;100.00;100582.06;5087935;28;20024;-73
2021/12/06 01:56:15;;;;;;;6.75;2.22;;;;;;;4.50;100.00;100583.97;5070150;28;20531;-73
2021/12/06 01:58:42;;;;;;;6.32;2.45;;;;;;;4.47;100.00;100591.63;5060849;28;20028;-74
2021/12/06 02:01:07;;;;;;;7.65;2.30;;;;;;;4.47;100.00;100599.06;5074863;28;20433;-74
2021/12/06 02:03:33;;;;;;;8.13;2.08;;;;;;;4.49;100.00;100602.41;5087695;28;20040;-73
2021/12/06 02:05:58;;;;;;;8.55;2.50;;;;;;;4.48;100.00;100608.97;5051293;28;20039;-74
2021/12/06 02:08:24;;;;;;;8.18;2.00;;;;;;;4.48;100.00;100608.97;5048112;28;20047;-74
2021/12/06 02:10:50;;;;;;;5.70;1.98;;;;;;;4.45;100.00;100604.81;5090106;28;20385;-74
2021/12/06 02:13:15;;;;;;;7.88;2.97;;;;;;;4.48;100.00;100606.22;5096655;28;20032;-74
2021/12/06 02:15:46;;;;;;;7.85;2.22;;;;;;;4.46;100.00;100603.72;5051311;28;20519;-74
2021/12/06 02:18:26;;;;;;;8.05;2.58;;;;;;;4.47;100.00;100588.06;5079275;28;20039;-74
2021/12/06 02:21:01;;;;;;;7.53;1.83;;;;;;;4.46;100.00;100594.66;5082036;28;20047;-74
2021/12/06 02:23:27;;;;;;;8.20;2.15;;;;;;;4.44;100.00;100594.06;5058981;28;20414;-74
2021/12/06 02:25:52;;;;;;;5.07;1.77;;;;;;;4.44;100.00;100591.31;5069696;28;20097;-74
2021/12/06 02:28:18;;;;;;;7.05;2.25;;;;;;;4.45;100.00;100592.97;5098121;28;20043;-74
2021/12/06 02:30:43;;;;;;;6.28;1.73;;;;;;;4.43;100.00;100603.38;5065699;28;20397;-74
2021/12/06 02:33:09;;;;;;;6.90;1.90;;;;;;;4.42;100.00;100599.81;5096828;28;20032;-74
2021/12/06 02:35:34;;;;;;;7.32;1.92;;;;;;;4.39;100.00;100600.31;5067302;28;20032;-74
2021/12/06 02:38:02;;;;;;;6.20;1.90;;;;;;;4.39;100.00;100605.81;5069427;28;20055;-74
2021/12/06 02:40:29;;;;;;;7.20;2.50;;;;;;;4.37;100.00;100613.47;5059034;28;20039;-74
2021/12/06 02:42:56;;;;;;;5.53;1.90;;;;;;;4.35;100.00;100610.16;5095618;28;20031;-74
2021/12/06 02:45:27;;;;;;;3.47;1.60;;;;;;;4.34;100.00;100613.16;5096345;28;20031;-74
2021/12/06 02:47:56;;;;;;;4.47;1.60;;;;;;;4.36;100.00;100608.25;5062302;28;20024;-74
2021/12/06 02:50:24;;;;;;;5.85;2.05;;;;;;;4.35;100.00;100609.34;5058600;28;20036;-74
2021/12/06 02:52:50;;;;;;;6.50;2.08;;;;;;;4.33;100.00;100600.50;5077824;28;20031;-74
2021/12/06 02:57:55;;;;;;;6.78;1.95;;;;;;;4.29;100.00;100607.56;5075533;28;20039;-73
2021/12/06 03:00:20;;;;;;;4.57;1.85;;;;;;;4.27;100.00;100601.50;5080846;28;20440;-74
2021/12/06 03:02:46;;;;;;;5.45;1.80;;;;;;;4.23;100.00;100588.25;5079627;28;20040;-74
2021/12/06 03:05:11;;;;;;;6.15;1.60;;;;;;;4.24;100.00;100591.84;5087377;28;20031;-74
2021/12/06 03:07:38;;;;;;;5.18;1.67;;;;;;;4.20;100.00;100588.72;5095563;28;20522;-74
2021/12/06 03:10:05;;;;;;;6.90;1.90;;;;;;;4.14;100.00;100595.22;5095013;28;20043;-74
2021/12/06 03:12:30;;;;;;;5.00;1.77;;;;;;;4.10;100.00;100598.75;5085190;28;20115;-74
2021/12/06 03:14:57;;;;;;;7.75;2.17;;;;;;;4.08;100.00;100592.66;5067909;28;20027;-74
2021/12/06 03:17:24;;;;;;;7.57;1.92;;;;;;;4.07;100.00;100591.84;5086807;28;20062;-74
2021/12/06 03:19:49;;;;;;;7.50;2.08;;;;;;;4.02;100.00;100594.50;5102833;28;20055;-74
2021/12/06 03:22:15;;;;;;;4.70;1.60;;;;;;;3.98;100.00;100594.16;5079353;28;20024;-73
2021/12/06 03:24:42;;;;;;;5.05;1.85;;;;;;;3.96;100.00;100596.31;5067832;28;20024;-74
2021/12/06 03:27:07;;;;;;;6.63;2.05;;;;;;;3.92;100.00;100588.81;5082100;28;20035;-74
2021/12/06 03:29:33;;;;;;;6.13;2.10;;;;;;;3.90;100.00;100593.69;5054697;28;20028;-74
2021/12/06 03:31:58;;;;;;;6.28;1.90;;;;;;;3.91;100.00;100581.66;5069463;28;20051;-73
2021/12/06 03:34:26;;;;;;;6.15;1.70;;;;;;;3.90;100.00;100590.97;5072735;28;20050;-73
2021/12/06 03:36:55;;;;;;;5.03;2.00;;;;;;;3.87;100.00;100591.47;5076050;28;20043;-73
2021/12/06 03:39:25;;;;;;;3.45;1.75;;;;;;;3.85;100.00;100593.66;5078663;28;20038;-74
2021/12/06 03:41:53;;;;;;;6.38;1.73;;;;;;;3.83;100.00;100590.31;5096300;28;20103;-74
2021/12/06 03:44:20;;;;;;;5.25;1.90;;;;;;;3.84;100.00;100594.69;5094560;28;20028;-74
2021/12/06 03:46:46;;;;;;;8.32;1.90;;;;;;;3.85;100.00;100585.41;5093507;28;20039;-74
2021/12/06 03:49:13;;;;;;;4.10;2.13;;;;;;;3.80;100.00;100589.72;5095178;28;20111;-73
2021/12/06 03:51:38;;;;;;;5.53;1.80;;;;;;;3.80;100.00;100592.44;5057774;28;20020;-74
2021/12/06 03:54:04;;;;;;;2.65;1.52;;;;;;;3.83;100.00;100595.78;5072379;28;20385;-73
2021/12/06 03:56:30;;;;;;;7.55;2.28;;;;;;;3.81;100.00;100596.84;5068635;28;20079;-74
2021/12/06 03:58:55;;;;;;;4.55;1.52;;;;;;;3.80;100.00;100586.13;5065982;28;20039;-74
2021/12/06 04:01:21;;;;;;;5.07;1.83;;;;;;;3.81;100.00;100585.88;5094220;28;20036;-73
2021/12/06 04:03:47;;;;;;;4.10;1.80;;;;;;;3.79;100.00;100582.56;5056685;28;20051;-73
2021/12/06 04:06:13;;;;;;;4.03;1.83;;;;;;;3.83;100.00;100584.81;5070506;28;20035;-74
2021/12/06 04:08:38;;;;;;;19.75;17.08;;;;;;;3.81;100.00;100580.38;5097074;28;20426;-74
2021/12/06 04:11:04;;;;;;;8.65;6.05;;;;;;;3.82;100.00;100581.22;5093195;28;20062;-74
2021/12/06 04:13:30;;;;;;;8.52;4.93;;;;;;;3.83;100.00;100573.81;5094683;28;20020;-74
2021/12/06 04:15:55;;;;;;;8.25;4.43;;;;;;;3.81;100.00;100579.53;5096947;28;20034;-74
2021/12/06 04:18:21;;;;;;;7.38;3.88;;;;;;;3.83;100.00;100577.38;5065073;28;20035;-74
2021/12/06 04:20:46;;;;;;;8.15;3.78;;;;;;;3.84;100.00;100573.56;5093052;28;20043;-74
2021/12/06 04:23:12;;;;;;;6.68;3.67;;;;;;;3.84;100.00;100567.22;5070123;28;20123;-74
2021/12/06 04:25:38;;;;;;;9.15;3.60;;;;;;;3.81;100.00;100565.81;5067164;28;20392;-74
2021/12/06 04:28:06;;;;;;;9.43;3.40;;;;;;;3.84;100.00;100564.47;5098700;28;20048;-74
2021/12/06 04:30:33;;;;;;;7.80;2.97;;;;;;;3.85;100.00;100549.69;5089223;28;20036;-74
2021/12/06 04:32:58;;;;;;;5.20;2.92;;;;;;;3.84;100.00;100546.06;5068122;28;20051;-74
2021/12/06 04:35:24;;;;;;;5.93;3.03;;;;;;;3.83;100.00;100549.91;5085472;28;20070;-74
2021/12/06 04:37:50;;;;;;;7.50;3.33;;;;;;;3.83;100.00;100551.84;5086872;28;20032;-74
2021/12/06 04:40:15;;;;;;;6.43;3.08;;;;;;;3.81;100.00;100563.88;5069494;28;20085;-74
2021/12/06 04:42:41;;;;;;;5.10;2.60;;;;;;;3.79;100.00;100560.56;5089120;28;20378;-74
2021/12/06 04:45:07;;;;;;;6.40;2.67;;;;;;;3.78;100.00;100564.38;5055998;28;20082;-74
2021/12/06 04:47:33;;;;;;;4.43;2.75;;;;;;;3.76;100.00;100565.72;5043238;28;20072;-74
2021/12/06 04:49:58;;;;;;;10.00;2.53;;;;;;;3.80;100.00;100575.97;5076783;28;20033;-74
2021/12/06 04:52:24;;;;;;;4.78;2.60;;;;;;;3.78;100.00;100571.81;5104725;28;20032;-74
2021/12/06 04:54:53;;;;;;;9.18;2.67;;;;;;;3.78;100.00;100578.13;5073305;28;20040;-74
2021/12/06 04:57:29;;;;;;;7.18;2.90;;;;;;;3.76;100.00;100573.94;5051838;28;20028;-74
2021/12/06 04:59:57;;;;;;;4.97;2.30;;;;;;;3.77;100.00;100584.72;5077560;28;20036;-74
2021/12/06 05:02:32;;;;;;;9.05;2.35;;;;;;;3.77;100.00;100586.63;5083705;28;20499;-74
2021/12/06 05:05:00;;;;;;;6.55;2.42;;;;;;;3.75;100.00;100584.13;5071544;28;20067;-74
2021/12/06 05:07:32;;;;;;;5.43;2.80;;;;;;;3.78;100.00;100583.63;5090402;28;20031;-74
2021/12/06 05:09:57;;;;;;;3.85;2.40;;;;;;;3.75;100.00;100578.63;5072548;28;20041;-74
2021/12/06 05:12:24;;;;;;;8.20;2.83;;;;;;;3.77;100.00;100581.97;5107091;28;20032;-74
2021/12/06 05:14:50;;;;;;;5.25;2.50;;;;;;;3.76;100.00;100584.94;5089486;28;20028;-74
2021/12/06 05:17:15;;;;;;;9.18;3.20;;;;;;;3.79;100.00;100584.47;5077735;28;20027;-74
2021/12/06 05:19:41;;;;;;;7.38;2.88;;;;;;;3.77;100.00;100587.47;5072447;28;20029;-74
2021/12/06 05:22:06;;;;;;;6.55;2.90;;;;;;;3.79;100.00;100584.47;5076498;28;20074;-74
2021/12/06 05:24:32;;;;;;;5.38;2.88;;;;;;;3.78;100.00;100591.84;5075987;28;20028;-74
2021/12/06 05:26:59;;;;;;;6.38;2.53;;;;;;;3.82;100.00;100597.72;5098803;28;20028;-74
2021/12/06 05:29:26;;;;;;;10.25;3.38;;;;;;;3.80;100.00;100592.44;5067993;28;20024;-74
2021/12/06 05:31:56;;;;;;;6.38;2.75;;;;;;;3.81;100.00;100605.09;5067023;28;20251;-74
2021/12/06 05:34:29;;;;;;;8.55;2.88;;;;;;;3.87;100.00;100599.69;5089820;28;20222;-74
2021/12/06 05:36:55;;;;;;;6.47;2.58;;;;;;;3.79;100.00;100599.03;5071813;28;20032;-74
2021/12/06 05:39:21;;;;;;;5.10;2.40;;;;;;;3.83;100.00;100598.53;5059403;28;20044;-74
2021/12/06 05:41:47;;;;;;;10.95;2.70;;;;;;;3.80;100.00;100614.44;5073638;28;20039;-74
2021/12/06 05:44:12;;;;;;;6.03;2.53;;;;;;;3.83;100.00;100612.28;5088235;28;20028;-74
2021/12/06 05:46:37;;;;;;;7.50;2.40;;;;;;;3.83;100.00;100610.34;5064676;28;20463;-74
2021/12/06 05:49:03;;;;;;;6.95;2.45;;;;;;;3.83;100.00;100613.09;5084786;28;20032;-74
2021/12/06 05:51:29;;;;;;;4.25;2.10;;;;;;;3.83;100.00;100613.09;5067025;28;20035;-74
2021/12/06 05:53:54;;;;;;;8.65;2.25;;;;;;;3.80;100.00;100619.94;5071514;28;20028;-74
2021/12/06 05:56:20;;;;;;;7.30;2.45;;;;;;;3.81;100.00;100618.00;5072870;28;20031;-74
2021/12/06 05:58:46;;;;;;;4.90;2.25;;;;;;;3.80;100.00;100622.69;5093217;28;20097;-73
2021/12/06 06:01:11;;;;;;;5.32;2.33;;;;;;;3.79;100.00;100621.03;5097647;28;20032;-74
2021/12/06 06:03:37;;;;;;;9.85;2.45;;;;;;;3.77;100.00;100614.94;5053062;28;20038;-74
2021/12/06 06:06:02;;;;;;;9.05;1.98;;;;;;;3.79;100.00;100595.47;5106531;28;20043;-74
2021/12/06 06:08:28;;;;;;;6.15;2.42;;;;;;;3.76;100.00;100591.28;5068896;28;20036;-74
2021/12/06 06:10:53;;;;;;;5.40;2.30;;;;;;;3.76;100.00;100590.44;5086010;28;20032;-74
2021/12/06 06:13:19;;;;;;;4.90;2.20;;;;;;;3.77;100.00;100592.94;5097243;28;20107;-74
2021/12/06 06:15:45;;;;;;;8.95;2.55;;;;;;;3.79;100.00;100593.53;5077211;28;20103;-73
2021/12/06 06:18:10;;;;;;;10.40;2.95;;;;;;;3.75;100.00;100603.34;5072958;28;20057;-74
2021/12/06 06:20:40;;;;;;;8.98;2.65;;;;;;;3.69;100.00;100590.59;5088194;28;20027;-74
2021/12/06 06:23:06;;;;;;;9.95;3.33;;;;;;;3.70;100.00;100600.50;5096779;28;20120;-76
2021/12/06 06:25:31;;;;;;;7.82;2.53;;;;;;;3.69;100.00;100598.00;5096916;28;20036;-74
2021/12/06 06:27:57;;;;;;;9.10;3.13;;;;;;;3.67;100.00;100601.00;5105383;28;20048;-74
2021/12/06 06:30:22;;;;;;;9.32;2.75;;;;;;;3.67;100.00;100603.75;5074315;28;20053;-74
2021/12/06 06:32:48;;;;;;;9.05;2.67;;;;;;;3.67;100.00;100602.91;5092863;28;20079;-74
2021/12/06 06:35:14;;;;;;;8.93;2.65;;;;;;;3.67;100.00;100603.75;5097437;28;20046;-74
2021/12/06 06:37:40;;;;;;;10.85;2.92;;;;;;;3.67;100.00;100608.41;5108825;28;20032;-74
2021/12/06 06:40:06;;;;;;;9.23;2.28;;;;;;;3.63;100.00;100602.59;5085473;28;20033;-74
2021/12/06 06:42:31;;;;;;;6.43;2.70;;;;;;;3.61;100.00;100612.97;5087025;28;20400;-74
2021/12/06 06:44:57;;;;;;;7.43;2.50;;;;;;;3.64;100.00;100603.41;5043589;28;20032;-74
2021/12/06 06:47:23;;;;;;;8.57;2.60;;;;;;;3.60;100.00;100600.31;5074219;28;20427;-74
2021/12/06 06:49:48;;;;;;;9.02;2.58;;;;;;;3.61;100.00;100610.22;5090504;28;20033;-74
2021/12/06 06:52:14;;;;;;;9.32;2.83;;;;;;;3.60;100.00;100608.56;5035225;28;20032;-74
2021/12/06 06:54:39;;;;;;;5.40;2.53;;;;;;;3.61;100.00;100599.22;5067534;28;20024;-74
2021/12/06 06:57:05;;;;;;;9.55;2.40;;;;;;;3.61;100.00;100603.91;5083721;28;20028;-75
2021/12/06 06:59:31;;;;;;;6.78;2.58;;;;;;;3.60;100.00;100603.06;5069102;28;20107;-74
2021/12/06 07:01:57;;;;;;;6.22;2.40;;;;;;;3.55;100.00;100595.56;5068174;28;20412;-74
2021/12/06 07:04:22;;;;;;;7.50;2.88;;;;;;;3.55;100.00;100601.06;5057193;28;20043;-74
2021/12/06 07:06:49;;;;;;;10.57;2.70;;;;;;;3.55;100.00;100592.81;5070887;28;20384;-74
2021/12/06 07:09:14;;;;;;;7.50;2.65;;;;;;;3.55;100.00;100592.00;5090388;28;20067;-74
2021/12/06 07:11:44;;;;;;;8.13;2.65;;;;;;;3.54;100.00;100601.31;5098948;28;20032;-76
2021/12/06 07:14:09;;;;;;;7.13;2.60;;;;;;;3.54;100.00;100604.06;5068493;28;20052;-76
2021/12/06 07:16:35;;;;;;;9.77;2.97;;;;;;;3.52;100.00;100592.47;5051673;28;20033;-77
2021/12/06 07:19:00;;;;;;;6.72;2.63;;;;;;;3.48;100.00;100594.91;5065792;28;20043;-76
2021/12/06 07:21:26;;;;;;;5.10;2.72;;;;;;;3.48;100.00;100596.78;5091385;28;20025;-74
2021/12/06 07:23:51;;;;;;;7.20;2.83;;;;;;;3.50;100.00;100605.63;5089265;28;20062;-74
2021/12/06 07:26:17;;;;;;;7.47;2.88;;;;;;;3.47;100.00;100592.38;5088053;28;20039;-74
2021/12/06 07:28:44;;;;;;;8.38;3.63;;;;;;;3.49;100.00;100591.06;5067571;28;20732;-74
2021/12/06 07:31:14;;;;;;;9.38;2.90;;;;;;;3.42;100.00;100573.88;5083409;28;20031;-74
2021/12/06 07:33:41;;;;;;;7.93;3.00;;;;;;;3.42;100.00;100573.88;5069247;28;20137;-74
2021/12/06 07:36:08;;;;;;;8.65;3.13;;;;;;;3.39;100.00;100571.63;5086007;28;20421;-74
2021/12/06 07:38:37;;;;;;;8.82;3.00;;;;;;;3.44;100.00;100571.72;5088285;28;20036;-74
2021/12/06 07:41:07;;;;;;;5.10;2.63;;;;;;;3.41;100.00;100583.22;5097794;28;20056;-74
2021/12/06 07:43:33;;;;;;;7.65;3.05;;;;;;;3.41;100.00;100576.88;5080263;28;20069;-74
2021/12/06 07:45:58;;;;;;;9.65;3.20;;;;;;;3.41;100.00;100583.22;5068692;28;20035;-74
2021/12/06 07:48:24;;;;;;;7.35;2.80;;;;;;;3.42;100.00;100567.56;5096830;28;20031;-74
2021/12/06 07:50:49;;;;;;;6.38;2.58;;;;;;;3.45;100.00;100556.09;5087695;28;20039;-74
2021/12/06 07:53:15;;;;;;;8.20;2.90;;;;;;;3.42;100.00;100546.44;5041528;28;20042;-74
2021/12/06 07:55:40;;;;;;;10.70;3.10;;;;;;;3.39;100.00;100541.44;5063873;28;20085;-74
2021/12/06 07:58:07;;;;;;;10.93;3.03;;;;;;;3.39;100.00;100540.59;5058685;28;20028;-74
2021/12/06 08:00:34;;;;;;;9.25;3.17;;;;;;;3.40;100.00;100525.78;5069311;28;20032;-74
2021/12/06 08:02:59;;;;;;;9.68;3.03;;;;;;;3.41;100.00;100530.22;5075363;28;20031;-74
2021/12/06 08:05:32;;;;;;;9.88;2.60;;;;;;;3.43;100.00;100536.31;5088992;28;20036;-74
2021/12/06 08:08:03;;;;;;;;;;;;;;;3.39;100.00;100546.91;5094670;28;20040;-74
2021/12/06 08:10:28;;;;;;;8.05;3.00;;;;;;;3.41;100.00;100549.44;5084925;28;20344;-74
2021/12/06 08:12:55;;;;;;;11.63;3.10;;;;;;;3.41;100.00;100561.25;5058898;28;20045;-73
2021/12/06 08:15:20;;;;;;;9.60;3.00;;;;;;;3.41;100.00;100555.75;5088105;28;20029;-74
2021/12/06 08:17:46;;;;;;;8.82;2.83;;;;;;;3.46;100.00;100555.03;5070981;28;20047;-74
2021/12/06 08:20:11;;;;;;;8.68;3.25;;;;;;;3.46;100.00;100553.09;5093878;28;20111;-74
2021/12/06 08:22:37;;;;;;;8.60;3.03;;;;;;;3.48;100.00;100539.13;5086513;28;20035;-74
2021/12/06 08:25:03;;;;;;;10.63;2.97;;;;;;;3.48;100.00;100534.47;5069944;28;20488;-74
2021/12/06 08:27:29;;;;;;;11.45;3.05;;;;;;;3.50;100.00;100515.81;5069939;28;20071;-74
2021/12/06 08:29:54;;;;;;;10.75;2.70;;;;;;;3.52;100.00;100518.34;5068786;28;20036;-74
2021/12/06 08:32:20;;;;;;;10.65;2.88;;;;;;;3.57;100.00;100512.94;5053561;28;20420;-74
2021/12/06 08:34:46;;;;;;;10.02;3.10;;;;;;;3.57;100.00;100518.44;5070647;28;20032;-74
2021/12/06 08:37:12;;;;;;;10.50;3.38;;;;;;;3.56;100.00;100520.31;5071531;28;20032;-74
2021/12/06 08:39:37;;;;;;;11.43;2.95;;;;;;;3.60;100.00;100526.19;5052704;28;20499;-74
2021/12/06 08:42:03;;;;;;;6.65;2.90;;;;;;;3.62;100.00;100517.69;5090102;28;20059;-74
2021/12/06 08:44:29;;;;;;;12.48;3.13;;;;;;;3.64;100.00;100508.09;5058599;28;20059;-74
2021/12/06 08:46:54;;;;;;;7.35;2.63;;;;;;;3.69;100.00;100510.94;5109156;28;20035;-74
2021/12/06 08:49:20;;;;;;;11.07;3.10;;;;;;;3.71;100.00;100522.53;5055256;28;20028;-74
2021/12/06 08:51:50;;;;;;;10.38;3.25;;;;;;;3.75;100.00;100520.94;5058173;28;20039;-74
2021/12/06 08:54:18;;;;;;;9.75;3.17;;;;;;;3.78;100.00;100508.63;5072841;28;20461;-74
2021/12/06 08:56:44;;;;;;;9.43;2.70;;;;;;;3.81;100.00;100503.44;5065497;28;20032;-73
2021/12/06 08:59:09;;;;;;;8.43;2.90;;;;;;;3.85;100.00;100495.56;5069054;28;20032;-73
2021/12/06 09:01:35;;;;;;;9.15;3.10;;;;;;;3.92;100.00;100493.47;5087120;28;20381;-73
2021/12/06 09:04:01;;;;;;;10.45;2.92;;;;;;;3.97;100.00;100489.97;5098720;28;20060;-73
2021/12/06 09:06:26;;;;;;;10.25;2.50;;;;;;;4.01;100.00;100486.47;5073079;28;20032;-73
2021/12/06 09:08:54;;;;;;;7.90;2.53;;;;;;;4.07;100.00;100490.13;5074714;28;20028;-73
2021/12/06 09:11:19;;;;;;;10.52;3.08;;;;;;;4.15;100.00;100494.34;5075394;28;20032;-74
2021/12/06 09:13:45;;;;;;;13.55;3.00;;;;;;;4.19;100.00;100490.03;5098911;28;20033;-73
2021/12/06 09:16:11;;;;;;;11.63;3.40;;;;;;;4.23;100.00;100480.19;5100364;28;20039;-73
2021/12/06 09:18:38;;;;;;;6.93;2.78;;;;;;;4.29;100.00;100478.34;5071316;28;20434;-74
2021/12/06 09:21:06;;;;;;;7.70;3.08;;;;;;;4.33;100.00;100474.00;5091658;28;20028;-73
2021/12/06 09:23:32;;;;;;;15.77;3.08;;;;;;;4.38;100.00;100474.09;5090258;28;20115;-74
2021/12/06 09:25:57;;;;;;;10.90;2.92;;;;;;;4.44;100.00;100462.06;5083360;28;20059;-73
2021/12/06 09:28:23;;;;;;;10.00;3.00;;;;;;;4.48;100.00;100458.56;5101190;28;20047;-73
2021/12/06 09:30:48;;;;;;;11.57;2.90;;;;;;;4.54;100.00;100456.72;5095173;28;20033;-74
2021/12/06 09:33:15;;;;;;;11.63;2.75;;;;;;;4.59;100.00;100439.41;5069024;28;20455;-74
2021/12/06 09:35:43;;;;;;;11.93;3.20;;;;;;;4.65;100.00;100421.88;5085831;28;20024;-74
2021/12/06 09:38:09;;;;;;;14.23;3.42;;;;;;;4.69;100.00;100423.06;5106648;28;20038;-73
2021/12/06 09:40:36;;;;;;;13.75;3.35;;;;;;;4.72;100.00;100416.19;5096372;28;20036;-74
2021/12/06 09:43:03;;;;;;;16.15;3.00;;;;;;;4.77;100.00;100416.25;5087078;28;20027;-74
2021/12/06 09:45:30;;;;;;;10.43;3.17;;;;;;;4.81;100.00;100409.97;5103057;28;20028;-74
2021/12/06 09:47:55;;;;;;;13.52;3.78;;;;;;;4.84;100.00;100409.44;5086025;28;20038;-74
2021/12/06 09:50:33;;;;;;;15.20;3.25;;;;;;;4.87;100.00;100394.34;5054957;28;20467;-74
2021/12/06 09:52:59;;;;;;;14.02;3.17;;;;;;;4.92;100.00;100403.47;5070262;28;20024;-74
2021/12/06 09:55:26;;;;;;;9.32;3.28;;;;;;;4.97;100.00;100408.22;5072603;28;20633;-74
2021/12/06 09:57:52;;;;;;;14.82;3.42;;;;;;;5.00;100.00;100401.38;5088126;28;20043;-74
2021/12/06 10:00:22;;;;;;;14.25;3.33;;;;;;;5.03;100.00;100396.16;5089653;28;20033;-74
2021/12/06 10:02:47;;;;;;;11.40;2.85;;;;;;;5.06;100.00;100397.56;5073012;28;20451;-74
2021/12/06 10:05:13;;;;;;;11.98;3.00;;;;;;;5.11;100.00;100406.72;5066758;28;20059;-74
2021/12/06 10:07:38;;;;;;;16.38;3.38;;;;;;;5.18;100.00;100411.16;5070817;28;20040;-74
2021/12/06 10:10:05;;;;;;;9.40;2.65;;;;;;;5.20;100.00;100418.06;5063674;28;20036;-74
2021/12/06 10:12:31;;;;;;;11.27;2.97;;;;;;;5.25;100.00;100414.56;5065147;28;20020;-74
2021/12/06 10:15:00;;;;;;;10.52;2.72;;;;;;;5.28;100.00;100414.03;5073537;28;20035;-73
2021/12/06 10:17:26;;;;;;;15.10;3.00;;;;;;;5.32;100.00;100413.25;5107162;28;20036;-74
2021/12/06 10:19:52;;;;;;;12.25;3.10;;;;;;;5.35;100.00;100411.91;5055681;28;20044;-74
2021/12/06 10:22:17;;;;;;;12.90;3.05;;;;;;;5.37;100.00;100420.72;5074502;28;20025;-74
2021/12/06 10:24:50;;;;;;;10.65;3.08;;;;;;;5.41;100.00;100410.84;5073003;28;20551;-73
2021/12/06 10:27:15;;;;;;;12.25;2.90;;;;;;;5.43;100.00;100405.88;5086753;28;20048;-74
2021/12/06 10:29:49;;;;;;;15.13;3.22;;;;;;;5.47;100.00;100392.44;5069799;28;20089;-73
2021/12/06 10:32:36;;;;;;;11.43;2.85;;;;;;;5.50;100.00;100401.00;5051229;28;20032;-74
2021/12/06 10:35:12;;;;;;;17.33;2.40;;;;;;;5.54;100.00;100387.53;5068751;28;20054;-74
2021/12/06 10:37:48;;;;;;;11.30;2.72;;;;;;;5.57;100.00;100379.59;5068188;28;20040;-74
2021/12/06 10:40:29;;;;;;;12.35;2.60;;;;;;;5.60;100.00;100370.78;5096546;28;20103;-74
2021/12/06 10:42:55;;;;;;;15.98;2.97;;;;;;;5.62;100.00;100365.00;5056335;28;20024;-74
2021/12/06 10:45:23;;;;;;;12.10;2.63;;;;;;;5.66;100.00;100368.06;5074045;28;20031;-74
2021/12/06 10:48:10;;;;;;;10.10;2.33;;;;;;;5.69;100.00;100359.28;5076699;28;20034;-74
2021/12/06 10:50:39;;;;;;;15.73;2.78;;;;;;;5.71;100.00;100355.16;5064059;28;20032;-74
2021/12/06 10:53:05;;;;;;;14.25;2.70;;;;;;;5.74;100.00;100360.13;5054273;28;20012;-74
2021/12/06 10:55:31;;;;;;;11.27;2.35;;;;;;;5.77;100.00;100356.03;5088866;28;20059;-74
2021/12/06 10:57:59;;;;;;;16.38;2.65;;;;;;;5.79;100.00;100348.28;5088126;28;20028;-73
2021/12/06 11:00:37;;;;;;;16.38;3.20;;;;;;;5.81;100.00;100338.66;5034806;28;20032;-74
2021/12/06 11:03:03;;;;;;;11.55;2.90;;;;;;;5.83;100.00;100335.66;5097103;28;20608;-74
2021/12/06 11:05:30;;;;;;;12.02;3.20;;;;;;;5.85;100.00;100330.72;5070444;28;20111;-74
2021/12/06 11:08:09;;;;;;;11.65;3.00;;;;;;;5.87;100.00;100317.47;5087878;28;20028;-74
2021/12/06 11:10:45;;;;;;;12.60;3.28;;;;;;;5.87;100.00;100289.09;5089352;28;20064;-74
2021/12/06 11:13:25;;;;;;;13.25;3.58;;;;;;;5.88;100.00;100290.72;5073218;28;20016;-74
2021/12/06 11:15:57;;;;;;;13.85;3.42;;;;;;;5.88;100.00;100282.47;5087231;28;20228;-74
2021/12/06 11:18:43;;;;;;;21.20;4.20;;;;;;;5.88;100.00;100279.72;5085859;28;20048;-74
2021/12/06 11:21:27;;;;;;;13.57;3.05;;;;;;;5.89;100.00;100278.63;5089940;28;20039;-74
2021/12/06 11:23:55;;;;;;;12.13;2.70;;;;;;;5.89;100.00;100265.69;5088074;28;20053;-74
2021/12/06 11:26:21;;;;;;;11.40;2.42;;;;;;;5.89;100.00;100262.09;5064816;28;20032;-74
2021/12/06 11:28:47;;;;;;;12.40;2.33;;;;;;;5.88;100.00;100258.50;5067789;28;20052;-74
2021/12/06 11:31:13;;;;;;;17.75;2.53;;;;;;;5.86;100.00;100257.94;5059343;28;20027;-73
2021/12/06 11:33:38;;;;;;;15.55;2.95;;;;;;;5.87;100.00;100254.09;5059587;28;20040;-74
2021/12/06 11:36:21;;;;;;;12.45;2.50;;;;;;;5.86;100.00;100248.84;5091883;28;20028;-74
2021/12/06 11:38:48;;;;;;;14.60;2.42;;;;;;;5.85;100.00;100239.75;5077606;28;20039;-74
2021/12/06 11:41:14;;;;;;;14.43;2.50;;;;;;;5.86;100.00;100221.28;5067797;28;20027;-74